Time;durP1;ratioP1;P1;durP2;ratioP2;P2;SDS_P1;SDS_P2;PMS_P1;PMS_P2;Temp;Humidity;BMP_temperature;BMP_pressure;BME280_temperature;BME280_humidity;BME280_pressure;Samples;Min_cycle;Max_cycle;Signal;HPM_P1;HPM_P2
2023/03/16 00:02:15;;;;;;;7.78;5.03;;;;;;;3.87;79.29;101689.88;4937135;29;20119;-72
2023/03/16 00:04:40;;;;;;;9.38;4.80;;;;;;;3.86;79.84;101683.59;4957152;28;20150;-72
2023/03/16 00:07:10;;;;;;;8.55;5.53;;;;;;;3.87;79.77;101685.38;4932393;28;20131;-73
2023/03/16 00:09:40;;;;;;;7.40;4.60;;;;;;;3.89;79.97;101675.44;4937156;29;20476;-72
2023/03/16 00:12:16;;;;;;;7.53;5.30;;;;;;;3.89;79.56;101680.81;4943315;28;20500;-73
2023/03/16 00:14:43;;;;;;;7.03;4.95;;;;;;;3.92;79.34;101671.78;4929895;29;20040;-72
2023/03/16 00:17:17;;;;;;;9.45;5.00;;;;;;;3.92;79.79;101680.75;4929179;29;20086;-73
2023/03/16 00:19:45;;;;;;;5.82;4.70;;;;;;;3.91;79.89;101676.25;4944564;28;20441;-73
2023/03/16 00:22:13;;;;;;;9.23;5.00;;;;;;;3.92;79.92;101666.41;4942240;29;20039;-72
2023/03/16 00:24:42;;;;;;;9.98;5.40;;;;;;;3.92;79.71;101671.78;4943007;29;20031;-72
2023/03/16 00:27:13;;;;;;;8.35;5.57;;;;;;;3.92;79.87;101661.03;4942124;29;20063;-72
2023/03/16 00:29:45;;;;;;;6.43;4.88;;;;;;;3.91;79.87;101657.41;4935403;28;20440;-72
2023/03/16 00:32:19;;;;;;;8.95;5.50;;;;;;;3.92;80.17;101661.03;4928954;29;20039;-73
2023/03/16 00:34:45;;;;;;;9.65;5.00;;;;;;;3.93;79.69;101660.09;4930259;29;20060;-73
2023/03/16 00:37:14;;;;;;;9.38;5.10;;;;;;;3.95;79.51;101655.53;4927696;28;20101;-73
2023/03/16 00:39:41;;;;;;;11.50;5.10;;;;;;;3.97;79.73;101659.94;4943603;28;20035;-73
2023/03/16 00:42:08;;;;;;;8.82;5.70;;;;;;;3.98;80.09;101647.34;4942681;29;20064;-73
2023/03/16 00:44:34;;;;;;;11.20;5.57;;;;;;;3.98;79.89;101647.34;4929847;29;20051;-72
2023/03/16 00:47:01;;;;;;;12.30;5.45;;;;;;;3.95;79.75;101647.44;4930350;29;20044;-73
2023/03/16 00:49:26;;;;;;;7.75;5.18;;;;;;;3.96;79.96;101650.06;4942506;29;20431;-72
2023/03/16 00:51:51;;;;;;;9.73;4.82;;;;;;;3.94;79.79;101648.38;4941565;28;20133;-73
2023/03/16 00:54:18;;;;;;;8.40;4.75;;;;;;;3.96;80.04;101647.38;4929244;29;20035;-73
2023/03/16 00:56:44;;;;;;;9.93;4.95;;;;;;;3.95;79.65;101633.97;4928261;29;20392;-73
2023/03/16 00:59:11;;;;;;;8.05;5.57;;;;;;;3.96;79.56;101638.44;4943877;28;20044;-73
2023/03/16 01:01:37;;;;;;;8.05;5.47;;;;;;;3.96;80.47;101625.84;4948171;29;20058;-73
2023/03/16 01:04:02;;;;;;;7.28;5.18;;;;;;;3.93;80.23;101623.28;4947048;28;20474;-73
2023/03/16 01:06:28;;;;;;;9.45;5.78;;;;;;;3.89;80.63;101620.72;4947324;28;20064;-73
2023/03/16 01:08:53;;;;;;;7.90;4.95;;;;;;;3.92;80.77;101620.66;4947950;29;20447;-73
2023/03/16 01:11:21;;;;;;;8.10;4.93;;;;;;;3.92;80.36;101620.66;4945688;29;20027;-73
2023/03/16 01:13:48;;;;;;;8.40;4.82;;;;;;;3.92;80.48;101616.13;4946511;28;20039;-73
2023/03/16 01:16:17;;;;;;;5.63;4.97;;;;;;;3.92;80.54;101605.38;4946808;29;20035;-73
2023/03/16 01:18:43;;;;;;;9.07;5.40;;;;;;;3.90;80.66;101604.53;4946778;28;20042;-73
2023/03/16 01:21:12;;;;;;;9.25;5.10;;;;;;;3.85;81.00;101584.94;4946162;28;20054;-73
2023/03/16 01:23:38;;;;;;;6.03;4.68;;;;;;;3.88;80.71;101592.94;4946561;29;20039;-73
2023/03/16 01:26:05;;;;;;;12.75;5.22;;;;;;;3.88;80.77;101581.28;4947534;28;20391;-72
2023/03/16 01:28:33;;;;;;;9.98;5.45;;;;;;;3.89;81.08;101585.75;4944463;29;20427;-73
2023/03/16 01:31:08;;;;;;;9.30;4.90;;;;;;;3.91;81.14;101583.88;4947029;28;20046;-73
2023/03/16 01:33:34;;;;;;;9.38;4.78;;;;;;;3.90;81.21;101577.59;4946544;29;20058;-72
2023/03/16 01:36:07;;;;;;;8.82;5.18;;;;;;;3.89;80.96;101570.47;4932562;28;20033;-73
2023/03/16 01:38:41;;;;;;;9.80;5.28;;;;;;;3.94;81.49;101578.41;4962737;28;20054;-73
2023/03/16 01:41:07;;;;;;;10.98;5.07;;;;;;;3.95;80.96;101572.06;4928856;29;20114;-73
2023/03/16 01:43:36;;;;;;;9.57;5.05;;;;;;;3.97;81.07;101573.78;4936952;28;20133;-73
2023/03/16 01:46:04;;;;;;;8.05;5.03;;;;;;;3.98;81.04;101577.38;4950239;28;20463;-72
2023/03/16 01:48:47;;;;;;;6.97;4.50;;;;;;;4.00;81.75;101575.50;4945199;29;20519;-72
2023/03/16 01:51:23;;;;;;;10.32;5.32;;;;;;;4.03;80.75;101575.41;4945641;28;20043;-73
2023/03/16 01:53:52;;;;;;;11.50;5.57;;;;;;;4.02;81.16;101569.13;4947684;28;20039;-72
2023/03/16 01:56:23;;;;;;;10.40;5.40;;;;;;;4.03;81.09;101570.00;4945191;29;20031;-72
2023/03/16 01:58:52;;;;;;;11.25;5.13;;;;;;;4.03;80.88;101570.00;4945434;28;20042;-72
2023/03/16 02:01:18;;;;;;;9.75;4.38;;;;;;;4.04;80.77;101569.94;4946137;29;20106;-72
2023/03/16 02:03:44;;;;;;;8.10;5.43;;;;;;;4.04;80.80;101569.94;4945795;28;20106;-72
2023/03/16 02:06:19;;;;;;;6.63;4.72;;;;;;;4.06;81.19;101567.22;4945906;28;20575;-71
2023/03/16 02:08:54;;;;;;;8.57;5.15;;;;;;;4.06;80.88;101565.41;4946450;29;20058;-73
2023/03/16 02:11:21;;;;;;;11.52;5.38;;;;;;;4.08;81.36;101557.28;4944930;29;20095;-72
2023/03/16 02:14:02;;;;;;;10.15;4.82;;;;;;;4.09;81.11;101553.63;4944183;29;20051;-73
2023/03/16 02:16:28;;;;;;;6.80;4.05;;;;;;;4.08;81.33;101547.38;4958871;28;20525;-73
2023/03/16 02:18:54;;;;;;;10.18;4.75;;;;;;;4.11;80.82;101550.91;4964142;28;20047;-73
2023/03/16 02:21:31;;;;;;;11.68;5.18;;;;;;;4.13;81.25;101549.91;4928951;28;20034;-73
2023/03/16 02:23:58;;;;;;;6.85;4.40;;;;;;;4.13;81.00;101544.53;4933082;28;20364;-73
2023/03/16 02:26:58;;;;;;;7.10;4.53;;;;;;;4.15;80.77;101542.69;4960984;28;20042;-73
2023/03/16 02:29:47;;;;;;;8.57;4.57;;;;;;;4.16;80.98;101546.25;4900943;28;20047;-73
2023/03/16 02:32:14;;;;;;;7.13;4.88;;;;;;;4.12;81.82;101542.78;4932310;28;20398;-73
2023/03/16 02:34:40;;;;;;;7.85;4.38;;;;;;;4.12;82.09;101536.50;4948057;28;20031;-72
2023/03/16 02:37:07;;;;;;;6.03;4.65;;;;;;;4.13;81.65;101540.97;4954436;28;20046;-72
2023/03/16 02:39:33;;;;;;;8.63;4.70;;;;;;;4.12;82.92;101537.38;4963483;28;20482;-72
2023/03/16 02:42:00;;;;;;;8.57;4.75;;;;;;;4.08;82.07;101542.00;4963527;28;20027;-73
2023/03/16 02:44:35;;;;;;;6.22;4.65;;;;;;;4.10;82.29;101547.31;4950663;28;20043;-72
2023/03/16 02:47:10;;;;;;;8.45;4.70;;;;;;;4.07;83.04;101540.25;4964523;28;20456;-73
2023/03/16 02:49:39;;;;;;;7.85;4.97;;;;;;;4.08;82.61;101543.81;4944709;28;20503;-73
2023/03/16 02:52:05;;;;;;;6.43;4.65;;;;;;;4.06;83.89;101541.19;4936397;29;20332;-73
2023/03/16 02:54:32;;;;;;;10.35;4.53;;;;;;;4.05;83.13;101533.13;4948585;28;20058;-72
2023/03/16 02:56:57;;;;;;;9.48;4.80;;;;;;;4.04;83.68;101534.06;4947510;28;20466;-72
2023/03/16 02:59:24;;;;;;;6.40;4.35;;;;;;;4.03;83.13;101524.25;4952181;28;20113;-72
2023/03/16 03:01:50;;;;;;;11.95;6.45;;;;;;;4.02;83.44;101519.78;4948371;28;20126;-73
2023/03/16 03:04:16;;;;;;;9.20;4.90;;;;;;;4.02;84.18;101520.69;4949650;28;20153;-73
2023/03/16 03:06:41;;;;;;;8.13;4.65;;;;;;;4.00;84.29;101522.53;4947007;29;20035;-73
2023/03/16 03:09:10;;;;;;;8.65;4.43;;;;;;;4.00;83.78;101527.03;4946185;28;20030;-72
2023/03/16 03:11:36;;;;;;;6.43;4.13;;;;;;;3.99;84.46;101531.53;4950486;28;20878;-72
2023/03/16 03:14:02;;;;;;;7.68;4.60;;;;;;;3.98;84.44;101521.72;4943565;29;20071;-72
2023/03/16 03:16:28;;;;;;;8.10;4.47;;;;;;;3.95;83.64;101518.22;4949848;29;20030;-73
2023/03/16 03:18:55;;;;;;;7.32;4.63;;;;;;;4.01;84.02;101518.00;4932943;29;20510;-73
2023/03/16 03:21:22;;;;;;;6.72;4.38;;;;;;;4.01;83.83;101520.69;4936473;28;20278;-72
2023/03/16 03:23:48;;;;;;;7.13;3.97;;;;;;;4.02;83.10;101514.41;4950277;29;20114;-74
2023/03/16 03:26:14;;;;;;;10.75;5.28;;;;;;;4.00;84.03;101511.75;4931654;29;20114;-73
2023/03/16 03:28:41;;;;;;;8.10;5.15;;;;;;;3.99;84.26;101495.66;4948461;28;20078;-73
2023/03/16 03:31:16;;;;;;;12.20;4.93;;;;;;;4.02;84.25;101509.03;4947582;29;20066;-73
2023/03/16 03:33:42;;;;;;;12.95;4.97;;;;;;;4.01;83.71;101510.84;4948719;29;20529;-73
2023/03/16 03:36:08;;;;;;;6.63;4.60;;;;;;;4.01;83.67;101501.84;4948331;28;20142;-72
2023/03/16 03:38:36;;;;;;;7.50;4.68;;;;;;;3.99;83.47;101510.00;4948266;29;20129;-72
2023/03/16 03:41:02;;;;;;;8.82;4.60;;;;;;;4.01;83.37;101497.38;4947891;29;20039;-73
2023/03/16 03:43:32;;;;;;;7.10;4.47;;;;;;;4.00;84.01;101505.50;4948152;28;20491;-72
2023/03/16 03:45:59;;;;;;;10.43;5.03;;;;;;;3.99;83.32;101503.75;4933205;29;20035;-73
2023/03/16 03:48:25;;;;;;;11.43;4.35;;;;;;;3.96;84.02;101501.16;4948785;29;20150;-73
2023/03/16 03:50:51;;;;;;;9.52;4.10;;;;;;;3.95;83.82;101499.38;4948281;29;20924;-73
2023/03/16 03:53:32;;;;;;;9.60;4.15;;;;;;;3.94;83.79;101509.28;4950078;29;20047;-73
2023/03/16 03:56:13;;;;;;;7.38;4.65;;;;;;;3.92;83.62;101500.41;4933398;29;20058;-73
2023/03/16 03:58:38;;;;;;;8.30;3.88;;;;;;;3.95;83.50;101502.97;4945679;28;20101;-73
2023/03/16 04:01:04;;;;;;;8.77;5.07;;;;;;;3.96;83.49;101501.16;4948025;29;20051;-73
2023/03/16 04:03:31;;;;;;;8.73;4.05;;;;;;;3.96;83.37;101493.94;4948109;29;20432;-73
2023/03/16 04:05:57;;;;;;;8.30;4.32;;;;;;;3.97;83.93;101484.97;4947582;29;20040;-73
2023/03/16 04:08:22;;;;;;;7.50;4.72;;;;;;;3.94;84.03;101478.78;4946788;29;20046;-73
2023/03/16 04:10:48;;;;;;;5.65;3.75;;;;;;;3.95;83.97;101475.16;4931612;29;20122;-73
2023/03/16 04:13:13;;;;;;;9.60;4.25;;;;;;;3.97;83.92;101481.41;4932269;28;20498;-73
2023/03/16 04:15:39;;;;;;;9.82;4.45;;;;;;;4.00;83.60;101474.06;4915017;29;20321;-73
2023/03/16 04:18:11;;;;;;;8.05;4.03;;;;;;;3.99;83.96;101474.13;4932136;29;20038;-73
2023/03/16 04:20:38;;;;;;;8.90;4.18;;;;;;;4.00;83.87;101479.44;4947682;28;20496;-73
2023/03/16 04:23:04;;;;;;;6.13;4.32;;;;;;;4.01;83.59;101475.84;4947636;28;20514;-72
2023/03/16 04:25:30;;;;;;;7.70;4.32;;;;;;;4.01;83.68;101477.63;4931786;29;20495;-73
2023/03/16 04:27:56;;;;;;;8.90;4.00;;;;;;;4.01;83.60;101483.94;4919044;28;20291;-73
2023/03/16 04:30:25;;;;;;;6.45;3.83;;;;;;;4.00;83.14;101474.06;4947115;28;20478;-73
2023/03/16 04:32:55;;;;;;;6.95;4.35;;;;;;;4.04;83.67;101482.91;4935238;29;20078;-73
2023/03/16 04:35:21;;;;;;;10.73;4.43;;;;;;;4.05;83.06;101477.47;4943399;29;20234;-73
2023/03/16 04:37:51;;;;;;;4.75;3.53;;;;;;;4.05;83.40;101474.78;4931530;29;20126;-73
2023/03/16 04:40:19;;;;;;;7.50;4.00;;;;;;;4.05;83.25;101473.91;4930678;29;20091;-73
2023/03/16 04:42:51;;;;;;;9.48;3.85;;;;;;;4.07;83.34;101477.44;4930910;28;20682;-73
2023/03/16 04:45:18;;;;;;;7.82;4.38;;;;;;;4.06;83.62;101465.78;4945734;29;20043;-74
2023/03/16 04:47:46;;;;;;;4.45;3.45;;;;;;;4.10;83.62;101471.91;4947649;29;20586;-73
2023/03/16 04:50:12;;;;;;;9.98;4.47;;;;;;;4.12;83.88;101470.06;4945742;29;20035;-73
2023/03/16 04:52:38;;;;;;;5.57;3.67;;;;;;;4.12;83.71;101469.19;4946544;29;20116;-73
2023/03/16 04:55:05;;;;;;;6.90;3.67;;;;;;;4.12;83.80;101466.50;4946533;28;20031;-72
2023/03/16 04:57:31;;;;;;;6.20;4.10;;;;;;;4.12;84.21;101464.69;4946786;28;20073;-73
2023/03/16 04:59:57;;;;;;;8.00;3.97;;;;;;;4.12;84.27;101467.38;4946409;29;20055;-72
2023/03/16 05:02:46;;;;;;;5.63;3.67;;;;;;;4.12;84.37;101470.06;4948614;29;20081;-72
2023/03/16 05:05:13;;;;;;;5.90;3.70;;;;;;;4.09;84.87;101456.72;4952877;28;20458;-73
2023/03/16 05:07:41;;;;;;;7.28;4.28;;;;;;;4.13;85.56;101463.75;4946535;28;20420;-72
2023/03/16 05:10:09;;;;;;;6.30;3.80;;;;;;;4.13;85.20;101468.25;4946172;29;20035;-72
2023/03/16 05:12:34;;;;;;;10.15;4.10;;;;;;;4.13;85.60;101461.06;4946278;29;20051;-72
2023/03/16 05:15:05;;;;;;;8.18;3.58;;;;;;;4.11;85.17;101457.56;4946495;28;20550;-72
2023/03/16 05:17:42;;;;;;;4.38;3.13;;;;;;;4.10;85.32;101453.06;4946940;28;20500;-72
2023/03/16 05:20:11;;;;;;;6.40;3.63;;;;;;;4.13;84.73;101446.72;4946486;29;20097;-72
2023/03/16 05:22:41;;;;;;;8.15;4.03;;;;;;;4.13;85.56;101452.09;4946502;28;20546;-72
2023/03/16 05:25:15;;;;;;;7.38;3.72;;;;;;;4.13;85.44;101447.59;4945899;29;20075;-72
2023/03/16 05:27:46;;;;;;;12.48;3.63;;;;;;;4.14;85.38;101452.03;4945821;28;20081;-73
2023/03/16 05:30:17;;;;;;;11.00;3.72;;;;;;;4.16;85.47;101450.19;4931314;29;20046;-72
2023/03/16 05:32:44;;;;;;;8.35;3.80;;;;;;;4.17;85.93;101456.44;4946693;29;20101;-73
2023/03/16 05:35:12;;;;;;;5.43;3.88;;;;;;;4.15;85.78;101447.53;4946510;28;20027;-73
2023/03/16 05:37:41;;;;;;;7.93;3.67;;;;;;;4.19;85.79;101444.66;4951028;28;20364;-72
2023/03/16 05:40:16;;;;;;;9.40;3.78;;;;;;;4.18;86.62;101448.31;4929308;28;20430;-72
2023/03/16 05:42:52;;;;;;;7.68;3.70;;;;;;;4.18;86.51;101434.84;4947177;28;20114;-72
2023/03/16 05:45:18;;;;;;;5.28;3.35;;;;;;;4.16;86.34;101428.66;4946124;28;20523;-73
2023/03/16 05:47:55;;;;;;;8.43;4.10;;;;;;;4.17;86.10;101424.13;4945432;29;20039;-72
2023/03/16 05:50:21;;;;;;;7.60;3.65;;;;;;;4.18;86.38;101418.69;4947549;28;20423;-72
2023/03/16 05:52:47;;;;;;;6.40;3.15;;;;;;;4.20;86.07;101415.94;4950897;28;20140;-72
2023/03/16 05:55:19;;;;;;;8.75;4.18;;;;;;;4.23;86.29;101415.81;4947834;28;20570;-72
2023/03/16 05:57:49;;;;;;;6.80;3.75;;;;;;;4.25;86.32;101417.53;4944432;28;20118;-73
2023/03/16 06:00:17;;;;;;;8.07;3.50;;;;;;;4.26;85.98;101413.03;4941631;28;20082;-72
2023/03/16 06:02:50;;;;;;;5.75;3.40;;;;;;;4.27;85.10;101414.78;4948079;28;20316;-72
2023/03/16 06:05:17;;;;;;;7.10;3.30;;;;;;;4.30;85.49;101420.06;4946980;28;20518;-72
2023/03/16 06:07:44;;;;;;;6.40;3.30;;;;;;;4.31;85.69;101422.69;4944581;29;20118;-71
2023/03/16 06:10:11;;;;;;;8.90;3.10;;;;;;;4.32;85.59;101415.47;4929761;28;20571;-73
2023/03/16 06:12:37;;;;;;;6.40;3.20;;;;;;;4.33;85.23;101420.78;4950868;28;20067;-72
2023/03/16 06:15:06;;;;;;;6.78;3.45;;;;;;;4.36;85.41;101414.44;4929821;28;20043;-72
2023/03/16 06:17:33;;;;;;;7.97;3.53;;;;;;;4.37;84.85;101413.50;4945131;28;20042;-72
2023/03/16 06:19:59;;;;;;;7.32;3.30;;;;;;;4.42;85.20;101422.28;4945927;28;20046;-72
2023/03/16 06:22:25;;;;;;;6.25;2.97;;;;;;;4.43;84.91;101424.06;4938022;28;20030;-72
2023/03/16 06:24:50;;;;;;;4.32;2.92;;;;;;;4.46;84.94;101418.53;4947521;28;20438;-73
2023/03/16 06:27:18;;;;;;;10.82;3.13;;;;;;;4.49;85.29;101422.94;4946153;28;20058;-73
2023/03/16 06:29:57;;;;;;;10.73;3.42;;;;;;;4.49;84.38;101412.16;4929908;28;20471;-73
2023/03/16 06:32:24;;;;;;;6.38;3.35;;;;;;;4.52;84.41;101418.31;4939453;28;20034;-72
2023/03/16 06:34:50;;;;;;;5.72;3.13;;;;;;;4.53;84.81;101420.06;4945369;29;20031;-73
2023/03/16 06:37:16;;;;;;;7.07;3.55;;;;;;;4.53;85.47;101416.50;4945657;28;20586;-72
2023/03/16 06:39:41;;;;;;;6.65;3.13;;;;;;;4.57;86.00;101426.22;4949030;28;20062;-71
2023/03/16 06:42:06;;;;;;;4.82;3.67;;;;;;;4.57;86.64;101415.44;4969332;28;20049;-72
2023/03/16 06:44:32;;;;;;;10.05;4.35;;;;;;;4.59;86.29;101408.16;4951590;28;20049;-72
2023/03/16 06:47:03;;;;;;;7.15;4.03;;;;;;;4.57;87.02;101407.38;4969230;28;20429;-72
2023/03/16 06:49:29;;;;;;;7.57;3.63;;;;;;;4.59;87.42;101405.47;4969525;28;20413;-73
2023/03/16 06:51:57;;;;;;;10.02;3.38;;;;;;;4.60;87.77;101397.31;4965168;28;20046;-72
2023/03/16 06:54:23;;;;;;;6.82;3.83;;;;;;;4.62;87.85;101405.38;4952696;28;20376;-72
2023/03/16 06:56:49;;;;;;;9.43;4.18;;;;;;;4.66;87.55;101408.78;4947493;28;20069;-72
2023/03/16 06:59:15;;;;;;;8.32;3.50;;;;;;;4.70;86.96;101410.44;4961924;28;20222;-72
2023/03/16 07:01:41;;;;;;;6.43;3.55;;;;;;;4.74;87.01;101412.06;4950844;28;20067;-73
2023/03/16 07:04:07;;;;;;;7.82;3.53;;;;;;;4.78;87.63;101411.03;4948587;28;20454;-73
2023/03/16 07:06:33;;;;;;;7.05;3.80;;;;;;;4.80;87.25;101401.03;4962554;28;20105;-72
2023/03/16 07:09:00;;;;;;;7.60;3.85;;;;;;;4.85;87.30;101393.69;4948018;28;20102;-73
2023/03/16 07:11:27;;;;;;;8.77;4.13;;;;;;;4.89;86.88;101399.81;4948229;29;20026;-72
2023/03/16 07:13:52;;;;;;;9.88;3.47;;;;;;;4.90;85.82;101394.38;4942729;29;20042;-72
2023/03/16 07:16:20;;;;;;;5.82;3.15;;;;;;;4.94;87.09;101398.69;4948664;29;20413;-73
2023/03/16 07:18:46;;;;;;;4.85;3.00;;;;;;;4.99;84.90;101394.00;4950673;29;20089;-73
2023/03/16 07:21:14;;;;;;;5.60;2.90;;;;;;;5.01;84.90;101381.31;4950216;28;20035;-73
2023/03/16 07:23:41;;;;;;;7.22;3.80;;;;;;;5.06;85.66;101387.41;4948965;29;20042;-73
2023/03/16 07:26:07;;;;;;;7.35;3.17;;;;;;;5.07;86.22;101382.88;4947794;29;20043;-72
2023/03/16 07:28:35;;;;;;;7.22;3.42;;;;;;;5.17;86.89;101383.38;4932041;28;20042;-72
2023/03/16 07:31:02;;;;;;;7.40;3.85;;;;;;;5.25;85.93;101381.25;4948839;29;20047;-73
2023/03/16 07:33:28;;;;;;;7.18;3.20;;;;;;;5.31;84.62;101383.69;4949472;28;20035;-72
2023/03/16 07:35:54;;;;;;;5.75;3.58;;;;;;;5.36;84.72;101378.97;4948978;29;20403;-72
2023/03/16 07:38:20;;;;;;;9.82;4.05;;;;;;;5.38;84.43;101367.19;4932287;28;20113;-72
2023/03/16 07:40:46;;;;;;;4.85;3.42;;;;;;;5.43;83.46;101382.31;4947830;29;20299;-73
2023/03/16 07:43:18;;;;;;;7.32;3.03;;;;;;;5.45;83.20;101385.81;4931338;28;20326;-73
2023/03/16 07:45:50;;;;;;;10.02;3.17;;;;;;;5.47;82.82;101389.31;4948674;29;20042;-73
2023/03/16 07:48:18;;;;;;;7.93;3.83;;;;;;;5.47;81.53;101387.50;4948853;28;20035;-73
2023/03/16 07:50:49;;;;;;;6.57;3.65;;;;;;;5.47;82.82;101381.22;4932991;29;20046;-73
2023/03/16 07:53:15;;;;;;;6.90;3.85;;;;;;;5.50;82.62;101376.59;4946100;29;20035;-73
2023/03/16 07:55:43;;;;;;;6.45;3.20;;;;;;;5.53;81.98;101378.25;4949248;29;20502;-72
2023/03/16 07:58:10;;;;;;;9.70;3.70;;;;;;;5.55;82.60;101371.88;4948927;28;20058;-73
2023/03/16 08:00:38;;;;;;;7.80;3.20;;;;;;;5.59;83.00;101378.00;4948411;28;20061;-72
2023/03/16 08:03:03;;;;;;;7.63;3.38;;;;;;;5.62;81.84;101378.75;4932908;29;20043;-73
2023/03/16 08:05:31;;;;;;;7.30;3.97;;;;;;;5.68;81.85;101383.00;4964159;28;20063;-73
2023/03/16 08:08:00;;;;;;;8.32;3.60;;;;;;;5.76;81.10;101382.66;4948365;28;20051;-73
2023/03/16 08:10:27;;;;;;;4.35;3.08;;;;;;;5.83;82.19;101384.16;4947161;28;20097;-73
2023/03/16 08:13:03;;;;;;;4.55;2.92;;;;;;;5.95;80.70;101380.06;4931797;28;20043;-72
2023/03/16 08:15:32;;;;;;;5.63;3.40;;;;;;;6.00;80.49;101376.19;4960026;28;20089;-74
2023/03/16 08:18:03;;;;;;;8.90;3.72;;;;;;;6.04;80.43;101377.81;4951286;28;20031;-72
2023/03/16 08:20:28;;;;;;;8.18;3.60;;;;;;;6.13;79.84;101377.41;4951891;28;20120;-73
2023/03/16 08:22:54;;;;;;;4.43;3.38;;;;;;;6.21;80.33;101379.78;4948358;28;20071;-73
2023/03/16 08:25:25;;;;;;;8.18;3.10;;;;;;;6.29;78.77;101379.41;4935152;29;20034;-73
2023/03/16 08:27:57;;;;;;;7.07;3.25;;;;;;;6.33;79.17;101383.72;4947757;28;20043;-73
2023/03/16 08:30:24;;;;;;;10.32;4.30;;;;;;;6.38;78.68;101385.25;4947554;28;20039;-73
2023/03/16 08:33:05;;;;;;;6.47;3.30;;;;;;;6.43;76.21;101385.03;4947995;29;20281;-72
2023/03/16 08:35:30;;;;;;;5.32;3.38;;;;;;;6.50;76.47;101391.94;4948107;28;20483;-73
2023/03/16 08:37:56;;;;;;;9.00;3.47;;;;;;;6.56;77.04;101391.63;4931392;29;20058;-74
2023/03/16 08:40:23;;;;;;;7.53;3.33;;;;;;;6.64;76.93;101389.44;4947048;29;20056;-73
2023/03/16 08:42:49;;;;;;;11.30;4.10;;;;;;;6.73;77.67;101390.84;4948319;29;20407;-73
2023/03/16 08:45:16;;;;;;;6.25;3.55;;;;;;;6.79;74.78;101378.84;4947052;28;20039;-73
2023/03/16 08:47:42;;;;;;;6.22;3.20;;;;;;;6.83;73.69;101383.16;4947712;29;20039;-73
2023/03/16 08:50:12;;;;;;;5.53;3.30;;;;;;;6.89;76.32;101390.97;4947287;29;20059;-73
2023/03/16 08:52:37;;;;;;;6.78;4.20;;;;;;;6.95;75.12;101379.88;4945072;29;20298;-73
2023/03/16 08:55:04;;;;;;;5.80;3.17;;;;;;;7.03;72.98;101374.06;4930837;29;20033;-73
2023/03/16 08:57:33;;;;;;;5.82;3.15;;;;;;;7.10;74.15;101362.00;4946862;28;20066;-73
2023/03/16 08:59:58;;;;;;;4.80;3.38;;;;;;;7.13;73.67;101357.31;4945105;29;20786;-73
2023/03/16 09:02:24;;;;;;;6.38;3.63;;;;;;;7.16;74.54;101370.69;4945803;28;20071;-73
2023/03/16 09:04:50;;;;;;;8.07;3.72;;;;;;;7.21;74.26;101366.88;4949308;28;20097;-73
2023/03/16 09:07:15;;;;;;;7.75;3.15;;;;;;;7.23;72.69;101356.84;4953928;28;20035;-73
2023/03/16 09:09:41;;;;;;;7.13;3.20;;;;;;;7.28;73.09;101362.91;4914075;29;20515;-73
2023/03/16 09:12:07;;;;;;;6.97;3.15;;;;;;;7.34;72.35;101357.19;4946434;28;20078;-72
2023/03/16 09:14:32;;;;;;;5.25;3.28;;;;;;;7.45;71.50;101349.38;4947001;28;20035;-73
2023/03/16 09:16:58;;;;;;;6.35;3.25;;;;;;;7.58;71.86;101363.16;4930752;29;20094;-73
2023/03/16 09:19:23;;;;;;;4.97;3.20;;;;;;;7.76;72.37;101347.81;4947816;29;20437;-73
2023/03/16 09:21:50;;;;;;;10.10;3.97;;;;;;;7.93;71.43;101347.78;4945351;28;20027;-74
2023/03/16 09:24:16;;;;;;;6.45;3.63;;;;;;;8.10;70.42;101355.00;4946212;29;20538;-73
2023/03/16 09:26:42;;;;;;;5.10;3.10;;;;;;;8.26;71.35;101364.06;4945940;29;20058;-73
2023/03/16 09:29:08;;;;;;;4.75;3.08;;;;;;;8.34;69.13;101350.94;4943715;29;20030;-73
2023/03/16 09:31:35;;;;;;;7.57;3.70;;;;;;;8.47;67.55;101350.31;4947598;29;20463;-72
2023/03/16 09:34:00;;;;;;;6.78;3.03;;;;;;;8.57;67.90;101348.81;4948125;29;20039;-72
2023/03/16 09:36:26;;;;;;;6.85;3.80;;;;;;;8.66;67.17;101346.47;4945273;28;20201;-73
2023/03/16 09:38:52;;;;;;;5.43;3.33;;;;;;;8.76;66.88;101341.41;4947234;29;20183;-74
2023/03/16 09:41:36;;;;;;;10.48;3.47;;;;;;;8.86;67.28;101347.16;4943496;29;20512;-72
2023/03/16 09:44:20;;;;;;;5.40;3.05;;;;;;;8.98;69.17;101345.59;4947170;28;20049;-72
2023/03/16 09:46:49;;;;;;;7.00;3.17;;;;;;;9.21;66.62;101347.84;4947417;29;20042;-73
2023/03/16 09:49:18;;;;;;;7.60;3.10;;;;;;;9.33;65.92;101351.69;4947629;29;20094;-72
2023/03/16 09:51:51;;;;;;;6.15;3.00;;;;;;;9.52;65.93;101341.47;4944963;28;20031;-73
2023/03/16 09:54:25;;;;;;;7.25;2.95;;;;;;;9.74;65.42;101338.31;4946023;29;20403;-73
2023/03/16 09:56:53;;;;;;;7.82;3.00;;;;;;;9.95;65.28;101347.88;4945257;28;20483;-73
2023/03/16 09:59:18;;;;;;;7.03;2.88;;;;;;;10.08;62.59;101337.13;4911027;28;1037312;-74
2023/03/16 10:01:51;;;;;;;5.85;3.03;;;;;;;10.26;63.92;101335.13;4946419;29;20047;-73
2023/03/16 10:04:32;;;;;;;4.10;2.38;;;;;;;10.34;62.55;101329.19;4947264;28;20495;-73
2023/03/16 10:07:19;;;;;;;7.05;2.95;;;;;;;10.36;61.05;101329.97;4945739;29;20054;-73
2023/03/16 10:10:13;;;;;;;4.28;2.40;;;;;;;10.39;61.93;101317.03;4947520;29;20118;-73
2023/03/16 10:12:44;;;;;;;5.70;2.45;;;;;;;10.48;60.15;101313.72;4944730;28;20478;-72
2023/03/16 10:15:18;;;;;;;5.65;3.00;;;;;;;10.68;60.22;101311.59;4945461;28;20062;-73
2023/03/16 10:18:05;;;;;;;4.05;2.35;;;;;;;10.90;59.12;101305.56;4949639;28;20081;-74
2023/03/16 10:20:34;;;;;;;3.67;2.22;;;;;;;11.03;58.74;101297.47;4967481;28;20042;-74
2023/03/16 10:23:12;;;;;;;5.38;2.70;;;;;;;11.22;58.81;101304.28;4945400;29;20541;-73
2023/03/16 10:25:47;;;;;;;3.33;2.25;;;;;;;11.37;59.28;101310.53;4946808;29;20562;-74
2023/03/16 10:28:21;;;;;;;3.80;2.47;;;;;;;11.49;60.68;101314.28;4929394;28;20527;-73
2023/03/16 10:30:49;;;;;;;3.67;2.65;;;;;;;11.72;58.51;101299.94;4947357;29;20049;-74
2023/03/16 10:33:25;;;;;;;6.68;2.33;;;;;;;11.83;58.75;101299.19;4933212;28;20038;-73
2023/03/16 10:35:57;;;;;;;5.32;2.35;;;;;;;11.96;55.82;101307.41;4958588;28;20117;-73
2023/03/16 10:38:38;;;;;;;6.07;2.38;;;;;;;11.97;57.37;101310.00;4947015;28;20047;-73
2023/03/16 10:41:22;;;;;;;3.65;2.38;;;;;;;12.00;56.63;101300.75;4945254;28;20126;-73
2023/03/16 10:43:54;;;;;;;3.97;2.33;;;;;;;12.08;55.64;101303.81;4945421;28;20507;-73
2023/03/16 10:46:21;;;;;;;4.20;2.08;;;;;;;12.21;54.77;101295.59;4947661;29;20555;-73
2023/03/16 10:48:59;;;;;;;2.85;2.05;;;;;;;12.34;53.18;101290.13;4947809;29;20392;-74
2023/03/16 10:51:32;;;;;;;6.00;2.50;;;;;;;12.43;53.64;101293.06;4946978;28;20042;-74
2023/03/16 10:54:13;;;;;;;3.03;2.00;;;;;;;12.51;54.25;101282.47;4930620;29;20467;-73
2023/03/16 10:56:39;;;;;;;5.82;2.60;;;;;;;12.69;53.89;101287.56;4945776;29;20042;-73
2023/03/16 10:59:24;;;;;;;3.38;2.17;;;;;;;12.78;54.06;101284.13;4945215;28;20027;-74
2023/03/16 11:01:51;;;;;;;6.28;2.58;;;;;;;12.88;52.54;101271.53;4945906;29;20043;-73
2023/03/16 11:04:17;;;;;;;5.68;2.40;;;;;;;12.88;50.87;101271.53;4954626;28;20062;-73
2023/03/16 11:06:52;;;;;;;4.13;2.00;;;;;;;12.86;51.09;101273.50;4944002;29;20403;-74
2023/03/16 11:09:22;;;;;;;6.90;2.00;;;;;;;12.91;52.11;101264.94;4930039;29;20093;-73
2023/03/16 11:11:49;;;;;;;4.28;2.38;;;;;;;13.05;51.76;101267.50;4945777;29;20047;-73
2023/03/16 11:14:19;;;;;;;4.68;2.40;;;;;;;12.94;51.14;101249.22;4934299;29;20174;-74
2023/03/16 11:17:15;;;;;;;5.40;2.30;;;;;;;13.10;52.36;101248.03;4945851;29;20061;-74
2023/03/16 11:19:45;;;;;;;4.18;2.30;;;;;;;13.15;51.75;101237.63;4933083;29;20460;-74
2023/03/16 11:22:17;;;;;;;3.92;1.73;;;;;;;13.17;50.32;101222.88;4944603;29;20400;-74
2023/03/16 11:25:10;;;;;;;5.57;2.25;;;;;;;13.20;51.69;101235.44;4946125;28;20093;-73
2023/03/16 11:27:47;;;;;;;;;;;;;;;13.27;51.12;101234.84;4949054;29;20061;-74
2023/03/16 11:30:28;;;;;;;10.07;2.25;;;;;;;13.14;51.24;101241.34;4949762;28;19936;-74
2023/03/16 11:32:53;;;;;;;6.00;2.05;;;;;;;13.14;49.19;101234.03;4950514;29;20046;-74
2023/03/16 11:35:27;;;;;;;9.77;2.63;;;;;;;13.14;47.92;101230.41;4933051;29;20027;-73
2023/03/16 11:38:08;;;;;;;7.22;1.90;;;;;;;13.22;50.88;101228.00;4949622;28;20451;-74
2023/03/16 11:40:44;;;;;;;6.07;2.15;;;;;;;13.30;49.75;101206.44;4931789;28;20050;-73
2023/03/16 11:43:13;;;;;;;7.07;2.33;;;;;;;13.39;50.99;101213.03;4949317;28;20042;-74